Weather at Fort Wayne International Airport

Public forecast

Using degrees Fahrenheit for public forecast. Weather courtesy of forecast.io.

Current aviation weather report (METAR) for Fort Wayne International Airport

Retrieved 2020/09/26 19:54 UTC (9 minutes ago):

KFWA 261954Z 20013G20KT 10SM FEW250 24/16 A2987 RMK AO2 SLP111 T02440161

Aviation forecast (TAF) for Fort Wayne International Airport

Retrieved 2020/09/26 18:30 UTC (2 hours ago):

TAF KFWA 261727Z 2618/2718 21016G22KT P6SM FEW020 FM270000 19013KT P6SM FEW050 FM270400 20014KT P6SM FEW015 WS020/23040KT FM271200 21014KT P6SM OVC015 TEMPO 2713/2715 BKN009 FM271600 22016KT P6SM SCT025